sensor_id;sensor_type;location;lat;lon;timestamp;P1;durP1;ratioP1;P2;durP2;ratioP2
31764;SDS011;18338;53.240;8.798;2022-09-03T00:01:28;3.13;;;1.50;;
31764;SDS011;18338;53.240;8.798;2022-09-03T00:04:02;1.50;;;1.23;;
31764;SDS011;18338;53.240;8.798;2022-09-03T00:06:43;2.03;;;1.05;;
31764;SDS011;18338;53.240;8.798;2022-09-03T00:09:24;3.20;;;1.30;;
31764;SDS011;18338;53.240;8.798;2022-09-03T00:14:46;1.30;;;1.20;;
31764;SDS011;18338;53.240;8.798;2022-09-03T00:17:19;1.08;;;1.00;;
31764;SDS011;18338;53.240;8.798;2022-09-03T00:19:53;2.80;;;1.13;;
31764;SDS011;18338;53.240;8.798;2022-09-03T00:22:34;1.20;;;1.08;;
31764;SDS011;18338;53.240;8.798;2022-09-03T00:25:06;1.90;;;1.30;;
31764;SDS011;18338;53.240;8.798;2022-09-03T00:27:39;1.63;;;1.40;;
31764;SDS011;18338;53.240;8.798;2022-09-03T00:30:11;2.53;;;1.20;;
31764;SDS011;18338;53.240;8.798;2022-09-03T00:32:47;2.50;;;1.20;;
31764;SDS011;18338;53.240;8.798;2022-09-03T00:35:16;2.05;;;1.35;;
31764;SDS011;18338;53.240;8.798;2022-09-03T00:38:02;1.95;;;1.00;;
31764;SDS011;18338;53.240;8.798;2022-09-03T00:40:41;2.25;;;1.35;;
31764;SDS011;18338;53.240;8.798;2022-09-03T00:46:23;2.65;;;1.35;;
31764;SDS011;18338;53.240;8.798;2022-09-03T00:54:34;1.40;;;1.30;;
31764;SDS011;18338;53.240;8.798;2022-09-03T01:00:08;1.40;;;1.30;;
31764;SDS011;18338;53.240;8.798;2022-09-03T01:02:46;3.83;;;2.00;;
31764;SDS011;18338;53.240;8.798;2022-09-03T01:08:38;1.30;;;1.20;;
31764;SDS011;18338;53.240;8.798;2022-09-03T01:22:13;1.23;;;1.13;;
31764;SDS011;18338;53.240;8.798;2022-09-03T01:25:06;2.25;;;1.20;;
31764;SDS011;18338;53.240;8.798;2022-09-03T01:34:05;1.30;;;1.20;;
31764;SDS011;18338;53.240;8.798;2022-09-03T01:37:04;2.15;;;1.30;;
31764;SDS011;18338;53.240;8.798;2022-09-03T01:39:44;3.05;;;1.67;;
31764;SDS011;18338;53.240;8.798;2022-09-03T01:42:16;1.33;;;1.20;;
31764;SDS011;18338;53.240;8.798;2022-09-03T01:48:01;2.03;;;1.83;;
31764;SDS011;18338;53.240;8.798;2022-09-03T01:53:40;1.90;;;1.35;;
31764;SDS011;18338;53.240;8.798;2022-09-03T02:02:12;1.80;;;1.70;;
31764;SDS011;18338;53.240;8.798;2022-09-03T02:04:59;4.75;;;1.88;;
31764;SDS011;18338;53.240;8.798;2022-09-03T02:07:33;1.92;;;1.80;;
31764;SDS011;18338;53.240;8.798;2022-09-03T02:10:03;1.75;;;1.65;;
31764;SDS011;18338;53.240;8.798;2022-09-03T02:12:35;1.80;;;1.70;;
31764;SDS011;18338;53.240;8.798;2022-09-03T02:15:06;1.60;;;1.50;;
31764;SDS011;18338;53.240;8.798;2022-09-03T02:17:37;3.33;;;1.52;;
31764;SDS011;18338;53.240;8.798;2022-09-03T02:20:07;3.85;;;1.50;;
31764;SDS011;18338;53.240;8.798;2022-09-03T02:22:38;1.70;;;1.60;;
31764;SDS011;18338;53.240;8.798;2022-09-03T02:25:06;2.15;;;1.63;;
31764;SDS011;18338;53.240;8.798;2022-09-03T02:27:33;2.22;;;2.03;;
31764;SDS011;18338;53.240;8.798;2022-09-03T02:30:00;1.77;;;1.65;;
31764;SDS011;18338;53.240;8.798;2022-09-03T02:32:27;2.08;;;1.70;;
31764;SDS011;18338;53.240;8.798;2022-09-03T02:34:53;2.88;;;1.85;;
31764;SDS011;18338;53.240;8.798;2022-09-03T02:37:21;3.45;;;1.85;;
31764;SDS011;18338;53.240;8.798;2022-09-03T02:39:48;3.53;;;1.98;;
31764;SDS011;18338;53.240;8.798;2022-09-03T02:42:17;2.92;;;1.65;;
31764;SDS011;18338;53.240;8.798;2022-09-03T02:44:45;3.13;;;2.03;;
31764;SDS011;18338;53.240;8.798;2022-09-03T02:47:15;2.20;;;1.90;;
31764;SDS011;18338;53.240;8.798;2022-09-03T02:49:43;2.85;;;1.80;;
31764;SDS011;18338;53.240;8.798;2022-09-03T02:52:11;1.70;;;1.60;;
31764;SDS011;18338;53.240;8.798;2022-09-03T02:54:38;1.92;;;1.80;;
31764;SDS011;18338;53.240;8.798;2022-09-03T02:57:06;1.77;;;1.67;;
31764;SDS011;18338;53.240;8.798;2022-09-03T02:59:33;2.75;;;1.70;;
31764;SDS011;18338;53.240;8.798;2022-09-03T03:02:01;2.13;;;1.92;;
31764;SDS011;18338;53.240;8.798;2022-09-03T03:04:29;2.05;;;1.80;;
31764;SDS011;18338;53.240;8.798;2022-09-03T03:06:57;2.03;;;1.73;;
31764;SDS011;18338;53.240;8.798;2022-09-03T03:09:24;2.03;;;1.67;;
31764;SDS011;18338;53.240;8.798;2022-09-03T03:11:51;2.92;;;1.95;;
31764;SDS011;18338;53.240;8.798;2022-09-03T03:14:20;2.53;;;1.55;;
31764;SDS011;18338;53.240;8.798;2022-09-03T03:16:48;2.47;;;1.75;;
31764;SDS011;18338;53.240;8.798;2022-09-03T03:19:16;2.45;;;1.90;;
31764;SDS011;18338;53.240;8.798;2022-09-03T03:21:42;2.38;;;1.95;;
31764;SDS011;18338;53.240;8.798;2022-09-03T03:24:09;2.03;;;1.63;;
31764;SDS011;18338;53.240;8.798;2022-09-03T03:26:36;2.85;;;1.63;;
31764;SDS011;18338;53.240;8.798;2022-09-03T03:29:03;1.85;;;1.70;;
31764;SDS011;18338;53.240;8.798;2022-09-03T03:31:30;2.17;;;1.60;;
31764;SDS011;18338;53.240;8.798;2022-09-03T03:33:59;1.70;;;1.60;;
31764;SDS011;18338;53.240;8.798;2022-09-03T03:36:28;2.00;;;1.90;;
31764;SDS011;18338;53.240;8.798;2022-09-03T03:38:57;2.42;;;1.67;;
31764;SDS011;18338;53.240;8.798;2022-09-03T03:41:25;2.28;;;1.77;;
31764;SDS011;18338;53.240;8.798;2022-09-03T03:43:56;2.10;;;1.90;;
31764;SDS011;18338;53.240;8.798;2022-09-03T03:46:27;2.03;;;1.80;;
31764;SDS011;18338;53.240;8.798;2022-09-03T03:49:00;2.75;;;1.90;;
31764;SDS011;18338;53.240;8.798;2022-09-03T03:51:27;2.22;;;1.80;;
31764;SDS011;18338;53.240;8.798;2022-09-03T03:53:54;2.72;;;2.05;;
31764;SDS011;18338;53.240;8.798;2022-09-03T03:56:22;1.98;;;1.80;;
31764;SDS011;18338;53.240;8.798;2022-09-03T03:58:52;2.55;;;1.83;;
31764;SDS011;18338;53.240;8.798;2022-09-03T04:01:20;1.98;;;1.88;;
31764;SDS011;18338;53.240;8.798;2022-09-03T04:03:49;4.18;;;1.98;;
31764;SDS011;18338;53.240;8.798;2022-09-03T04:06:17;2.35;;;1.70;;
31764;SDS011;18338;53.240;8.798;2022-09-03T04:08:46;2.85;;;1.77;;
31764;SDS011;18338;53.240;8.798;2022-09-03T04:11:16;4.38;;;1.85;;
31764;SDS011;18338;53.240;8.798;2022-09-03T04:13:45;1.83;;;1.67;;
31764;SDS011;18338;53.240;8.798;2022-09-03T04:18:41;2.30;;;2.10;;
31764;SDS011;18338;53.240;8.798;2022-09-03T04:21:09;2.50;;;2.03;;
31764;SDS011;18338;53.240;8.798;2022-09-03T04:23:41;2.05;;;1.85;;
31764;SDS011;18338;53.240;8.798;2022-09-03T04:26:10;2.60;;;1.80;;
31764;SDS011;18338;53.240;8.798;2022-09-03T04:28:38;2.15;;;1.92;;
31764;SDS011;18338;53.240;8.798;2022-09-03T04:31:08;2.30;;;2.10;;
31764;SDS011;18338;53.240;8.798;2022-09-03T04:33:37;2.05;;;1.85;;
31764;SDS011;18338;53.240;8.798;2022-09-03T04:36:05;2.00;;;1.75;;
31764;SDS011;18338;53.240;8.798;2022-09-03T04:38:37;2.35;;;1.80;;
31764;SDS011;18338;53.240;8.798;2022-09-03T04:41:06;4.50;;;1.95;;
31764;SDS011;18338;53.240;8.798;2022-09-03T04:43:33;2.20;;;1.92;;
31764;SDS011;18338;53.240;8.798;2022-09-03T04:46:01;3.08;;;1.90;;
31764;SDS011;18338;53.240;8.798;2022-09-03T04:48:42;2.75;;;1.80;;
31764;SDS011;18338;53.240;8.798;2022-09-03T04:51:13;2.38;;;2.17;;
31764;SDS011;18338;53.240;8.798;2022-09-03T04:53:42;2.08;;;1.88;;
31764;SDS011;18338;53.240;8.798;2022-09-03T04:56:15;1.80;;;1.70;;
31764;SDS011;18338;53.240;8.798;2022-09-03T04:58:46;1.80;;;1.70;;
31764;SDS011;18338;53.240;8.798;2022-09-03T05:01:17;4.70;;;1.83;;
31764;SDS011;18338;53.240;8.798;2022-09-03T05:03:45;1.70;;;1.52;;
31764;SDS011;18338;53.240;8.798;2022-09-03T05:06:12;2.97;;;1.70;;
31764;SDS011;18338;53.240;8.798;2022-09-03T05:08:42;3.03;;;1.63;;
31764;SDS011;18338;53.240;8.798;2022-09-03T05:11:13;2.78;;;1.45;;
31764;SDS011;18338;53.240;8.798;2022-09-03T05:13:40;2.17;;;1.58;;
31764;SDS011;18338;53.240;8.798;2022-09-03T05:16:08;2.58;;;1.20;;
31764;SDS011;18338;53.240;8.798;2022-09-03T05:18:37;1.77;;;1.60;;
31764;SDS011;18338;53.240;8.798;2022-09-03T05:21:08;2.22;;;1.35;;
31764;SDS011;18338;53.240;8.798;2022-09-03T05:23:38;1.50;;;1.40;;
31764;SDS011;18338;53.240;8.798;2022-09-03T05:26:09;2.50;;;1.65;;
31764;SDS011;18338;53.240;8.798;2022-09-03T05:28:41;2.28;;;1.15;;
31764;SDS011;18338;53.240;8.798;2022-09-03T05:31:13;2.42;;;1.20;;
31764;SDS011;18338;53.240;8.798;2022-09-03T05:33:42;2.28;;;1.30;;
31764;SDS011;18338;53.240;8.798;2022-09-03T05:36:15;2.55;;;1.00;;
31764;SDS011;18338;53.240;8.798;2022-09-03T05:38:44;1.90;;;0.90;;
31764;SDS011;18338;53.240;8.798;2022-09-03T05:41:13;2.55;;;1.20;;
31764;SDS011;18338;53.240;8.798;2022-09-03T05:43:41;1.55;;;1.17;;
31764;SDS011;18338;53.240;8.798;2022-09-03T05:46:09;2.33;;;0.95;;
31764;SDS011;18338;53.240;8.798;2022-09-03T05:48:39;1.75;;;1.20;;
31764;SDS011;18338;53.240;8.798;2022-09-03T05:51:08;1.73;;;0.80;;
31764;SDS011;18338;53.240;8.798;2022-09-03T05:53:37;1.35;;;1.20;;
31764;SDS011;18338;53.240;8.798;2022-09-03T05:56:09;1.10;;;0.90;;
31764;SDS011;18338;53.240;8.798;2022-09-03T05:58:38;2.35;;;1.13;;
31764;SDS011;18338;53.240;8.798;2022-09-03T06:01:09;1.38;;;0.90;;
31764;SDS011;18338;53.240;8.798;2022-09-03T06:03:38;1.52;;;1.23;;
31764;SDS011;18338;53.240;8.798;2022-09-03T06:06:13;3.90;;;1.00;;
31764;SDS011;18338;53.240;8.798;2022-09-03T06:08:40;1.33;;;1.10;;
31764;SDS011;18338;53.240;8.798;2022-09-03T06:11:10;1.38;;;1.17;;
31764;SDS011;18338;53.240;8.798;2022-09-03T06:13:37;2.92;;;1.10;;
31764;SDS011;18338;53.240;8.798;2022-09-03T06:16:05;1.70;;;1.15;;
31764;SDS011;18338;53.240;8.798;2022-09-03T06:18:32;2.10;;;0.98;;
31764;SDS011;18338;53.240;8.798;2022-09-03T06:21:00;2.67;;;0.90;;
31764;SDS011;18338;53.240;8.798;2022-09-03T06:23:40;0.90;;;0.90;;
31764;SDS011;18338;53.240;8.798;2022-09-03T06:26:12;1.45;;;1.00;;
31764;SDS011;18338;53.240;8.798;2022-09-03T06:28:40;1.48;;;0.80;;
31764;SDS011;18338;53.240;8.798;2022-09-03T06:31:11;1.20;;;0.82;;
31764;SDS011;18338;53.240;8.798;2022-09-03T06:33:39;2.70;;;0.90;;
31764;SDS011;18338;53.240;8.798;2022-09-03T06:36:08;1.73;;;0.80;;
31764;SDS011;18338;53.240;8.798;2022-09-03T06:38:36;1.40;;;0.80;;
31764;SDS011;18338;53.240;8.798;2022-09-03T06:41:07;1.45;;;0.80;;
31764;SDS011;18338;53.240;8.798;2022-09-03T06:43:49;1.20;;;0.90;;
31764;SDS011;18338;53.240;8.798;2022-09-03T06:46:21;2.05;;;1.00;;
31764;SDS011;18338;53.240;8.798;2022-09-03T06:48:49;3.17;;;1.20;;
31764;SDS011;18338;53.240;8.798;2022-09-03T06:51:17;2.42;;;0.85;;
31764;SDS011;18338;53.240;8.798;2022-09-03T06:53:46;1.15;;;1.00;;
31764;SDS011;18338;53.240;8.798;2022-09-03T06:56:16;3.13;;;0.80;;
31764;SDS011;18338;53.240;8.798;2022-09-03T06:58:45;1.02;;;0.85;;
31764;SDS011;18338;53.240;8.798;2022-09-03T07:01:14;1.42;;;1.02;;
31764;SDS011;18338;53.240;8.798;2022-09-03T07:03:44;1.25;;;0.80;;
31764;SDS011;18338;53.240;8.798;2022-09-03T07:06:15;1.15;;;0.90;;
31764;SDS011;18338;53.240;8.798;2022-09-03T07:08:45;1.85;;;1.00;;
31764;SDS011;18338;53.240;8.798;2022-09-03T07:11:13;1.33;;;0.90;;
31764;SDS011;18338;53.240;8.798;2022-09-03T07:13:41;2.08;;;1.02;;
31764;SDS011;18338;53.240;8.798;2022-09-03T07:16:11;1.20;;;0.85;;
31764;SDS011;18338;53.240;8.798;2022-09-03T07:18:41;2.70;;;1.05;;
31764;SDS011;18338;53.240;8.798;2022-09-03T07:21:10;1.55;;;0.75;;
31764;SDS011;18338;53.240;8.798;2022-09-03T07:23:45;1.73;;;0.90;;
31764;SDS011;18338;53.240;8.798;2022-09-03T07:26:14;1.65;;;0.80;;
31764;SDS011;18338;53.240;8.798;2022-09-03T07:28:43;1.05;;;0.60;;
31764;SDS011;18338;53.240;8.798;2022-09-03T07:31:12;1.25;;;1.00;;
31764;SDS011;18338;53.240;8.798;2022-09-03T07:33:54;3.13;;;1.05;;
31764;SDS011;18338;53.240;8.798;2022-09-03T07:36:23;1.60;;;0.90;;
31764;SDS011;18338;53.240;8.798;2022-09-03T07:38:53;2.95;;;1.13;;
31764;SDS011;18338;53.240;8.798;2022-09-03T07:41:24;1.70;;;0.90;;
31764;SDS011;18338;53.240;8.798;2022-09-03T07:43:54;1.55;;;0.80;;
31764;SDS011;18338;53.240;8.798;2022-09-03T07:46:23;2.20;;;1.20;;
31764;SDS011;18338;53.240;8.798;2022-09-03T07:48:53;1.25;;;0.73;;
31764;SDS011;18338;53.240;8.798;2022-09-03T07:51:25;0.95;;;0.80;;
31764;SDS011;18338;53.240;8.798;2022-09-03T07:53:54;2.65;;;1.10;;
31764;SDS011;18338;53.240;8.798;2022-09-03T07:56:27;1.77;;;0.90;;
31764;SDS011;18338;53.240;8.798;2022-09-03T07:58:57;1.33;;;1.00;;
31764;SDS011;18338;53.240;8.798;2022-09-03T08:01:25;1.33;;;0.73;;
31764;SDS011;18338;53.240;8.798;2022-09-03T08:03:56;3.40;;;1.10;;
31764;SDS011;18338;53.240;8.798;2022-09-03T08:06:25;1.38;;;1.13;;
31764;SDS011;18338;53.240;8.798;2022-09-03T08:08:54;1.20;;;0.90;;
31764;SDS011;18338;53.240;8.798;2022-09-03T08:11:30;4.22;;;1.40;;
31764;SDS011;18338;53.240;8.798;2022-09-03T08:14:01;1.05;;;0.80;;
31764;SDS011;18338;53.240;8.798;2022-09-03T08:16:33;1.67;;;1.05;;
31764;SDS011;18338;53.240;8.798;2022-09-03T08:19:01;1.33;;;0.90;;
31764;SDS011;18338;53.240;8.798;2022-09-03T08:21:28;1.58;;;0.93;;
31764;SDS011;18338;53.240;8.798;2022-09-03T08:23:56;1.40;;;0.93;;
31764;SDS011;18338;53.240;8.798;2022-09-03T08:26:29;2.45;;;0.90;;
31764;SDS011;18338;53.240;8.798;2022-09-03T08:29:01;2.67;;;0.88;;
31764;SDS011;18338;53.240;8.798;2022-09-03T08:31:29;4.63;;;1.20;;
31764;SDS011;18338;53.240;8.798;2022-09-03T08:34:05;1.10;;;0.80;;
31764;SDS011;18338;53.240;8.798;2022-09-03T08:36:33;2.60;;;0.88;;
31764;SDS011;18338;53.240;8.798;2022-09-03T08:39:02;3.25;;;0.88;;
31764;SDS011;18338;53.240;8.798;2022-09-03T08:41:40;2.33;;;1.10;;
31764;SDS011;18338;53.240;8.798;2022-09-03T08:44:29;1.77;;;1.20;;
31764;SDS011;18338;53.240;8.798;2022-09-03T08:47:09;6.07;;;0.98;;
31764;SDS011;18338;53.240;8.798;2022-09-03T08:52:48;1.92;;;0.88;;
31764;SDS011;18338;53.240;8.798;2022-09-03T08:57:57;2.50;;;0.77;;
31764;SDS011;18338;53.240;8.798;2022-09-03T09:00:48;1.92;;;0.90;;
31764;SDS011;18338;53.240;8.798;2022-09-03T09:06:28;1.85;;;0.70;;
31764;SDS011;18338;53.240;8.798;2022-09-03T09:17:35;1.65;;;0.68;;
31764;SDS011;18338;53.240;8.798;2022-09-03T09:20:36;1.60;;;0.90;;
31764;SDS011;18338;53.240;8.798;2022-09-03T09:23:17;2.25;;;0.80;;
31764;SDS011;18338;53.240;8.798;2022-09-03T09:25:51;0.95;;;0.77;;
31764;SDS011;18338;53.240;8.798;2022-09-03T09:28:21;1.50;;;0.90;;
31764;SDS011;18338;53.240;8.798;2022-09-03T09:30:53;3.55;;;0.88;;
31764;SDS011;18338;53.240;8.798;2022-09-03T09:33:21;1.80;;;0.88;;
31764;SDS011;18338;53.240;8.798;2022-09-03T09:35:50;1.38;;;0.80;;
31764;SDS011;18338;53.240;8.798;2022-09-03T09:38:34;3.20;;;0.68;;
31764;SDS011;18338;53.240;8.798;2022-09-03T09:41:15;1.10;;;0.90;;
31764;SDS011;18338;53.240;8.798;2022-09-03T09:43:59;2.72;;;0.75;;
31764;SDS011;18338;53.240;8.798;2022-09-03T09:46:37;1.85;;;0.82;;
31764;SDS011;18338;53.240;8.798;2022-09-03T09:53:17;2.42;;;0.80;;
31764;SDS011;18338;53.240;8.798;2022-09-03T09:55:47;2.03;;;0.70;;
31764;SDS011;18338;53.240;8.798;2022-09-03T09:58:18;2.60;;;0.80;;
31764;SDS011;18338;53.240;8.798;2022-09-03T10:00:56;2.97;;;1.05;;
31764;SDS011;18338;53.240;8.798;2022-09-03T10:03:32;1.67;;;0.70;;
31764;SDS011;18338;53.240;8.798;2022-09-03T10:06:06;2.13;;;0.90;;
31764;SDS011;18338;53.240;8.798;2022-09-03T10:12:01;3.17;;;1.00;;
31764;SDS011;18338;53.240;8.798;2022-09-03T10:20:11;2.17;;;0.73;;
31764;SDS011;18338;53.240;8.798;2022-09-03T10:22:59;1.73;;;0.80;;
31764;SDS011;18338;53.240;8.798;2022-09-03T10:28:36;1.25;;;0.68;;
31764;SDS011;18338;53.240;8.798;2022-09-03T10:34:14;2.17;;;0.80;;
31764;SDS011;18338;53.240;8.798;2022-09-03T10:53:59;2.20;;;0.77;;
31764;SDS011;18338;53.240;8.798;2022-09-03T10:59:31;1.52;;;0.80;;
31764;SDS011;18338;53.240;8.798;2022-09-03T11:02:17;1.27;;;0.95;;
31764;SDS011;18338;53.240;8.798;2022-09-03T11:05:00;0.90;;;0.80;;
31764;SDS011;18338;53.240;8.798;2022-09-03T11:07:37;0.93;;;0.73;;
31764;SDS011;18338;53.240;8.798;2022-09-03T11:10:25;0.82;;;0.65;;
31764;SDS011;18338;53.240;8.798;2022-09-03T11:13:00;2.55;;;0.95;;
31764;SDS011;18338;53.240;8.798;2022-09-03T11:15:50;1.60;;;0.57;;
31764;SDS011;18338;53.240;8.798;2022-09-03T11:18:32;0.95;;;0.80;;
31764;SDS011;18338;53.240;8.798;2022-09-03T11:21:10;1.08;;;0.80;;
31764;SDS011;18338;53.240;8.798;2022-09-03T11:23:43;2.42;;;1.10;;
31764;SDS011;18338;53.240;8.798;2022-09-03T11:26:14;2.60;;;0.80;;
31764;SDS011;18338;53.240;8.798;2022-09-03T11:28:57;1.50;;;0.80;;
31764;SDS011;18338;53.240;8.798;2022-09-03T11:33:59;0.98;;;0.88;;
31764;SDS011;18338;53.240;8.798;2022-09-03T11:39:52;2.55;;;0.80;;
31764;SDS011;18338;53.240;8.798;2022-09-03T11:42:28;1.02;;;0.77;;
31764;SDS011;18338;53.240;8.798;2022-09-03T11:47:46;0.80;;;0.73;;
31764;SDS011;18338;53.240;8.798;2022-09-03T11:50:18;2.90;;;0.70;;
31764;SDS011;18338;53.240;8.798;2022-09-03T11:58:38;2.67;;;1.25;;
31764;SDS011;18338;53.240;8.798;2022-09-03T12:01:08;2.60;;;0.90;;
31764;SDS011;18338;53.240;8.798;2022-09-03T12:03:51;0.82;;;0.82;;
31764;SDS011;18338;53.240;8.798;2022-09-03T12:11:56;2.15;;;0.70;;
31764;SDS011;18338;53.240;8.798;2022-09-03T12:17:32;1.20;;;0.75;;
31764;SDS011;18338;53.240;8.798;2022-09-03T12:20:35;2.83;;;0.88;;
31764;SDS011;18338;53.240;8.798;2022-09-03T12:23:02;0.65;;;0.65;;
31764;SDS011;18338;53.240;8.798;2022-09-03T12:25:29;1.58;;;0.70;;
31764;SDS011;18338;53.240;8.798;2022-09-03T12:27:55;1.58;;;0.80;;
31764;SDS011;18338;53.240;8.798;2022-09-03T12:30:28;1.15;;;0.60;;
31764;SDS011;18338;53.240;8.798;2022-09-03T12:33:02;3.90;;;1.02;;
31764;SDS011;18338;53.240;8.798;2022-09-03T12:35:32;1.48;;;0.75;;
31764;SDS011;18338;53.240;8.798;2022-09-03T12:38:23;3.90;;;0.90;;
31764;SDS011;18338;53.240;8.798;2022-09-03T12:40:51;3.58;;;0.98;;
31764;SDS011;18338;53.240;8.798;2022-09-03T12:43:37;1.65;;;0.80;;
31764;SDS011;18338;53.240;8.798;2022-09-03T12:46:12;2.67;;;0.80;;
31764;SDS011;18338;53.240;8.798;2022-09-03T12:51:57;1.75;;;0.70;;
31764;SDS011;18338;53.240;8.798;2022-09-03T12:55:13;0.70;;;0.70;;
31764;SDS011;18338;53.240;8.798;2022-09-03T12:57:54;1.70;;;0.70;;
31764;SDS011;18338;53.240;8.798;2022-09-03T13:00:29;3.40;;;0.80;;
31764;SDS011;18338;53.240;8.798;2022-09-03T13:03:06;1.60;;;0.73;;
31764;SDS011;18338;53.240;8.798;2022-09-03T13:05:51;3.60;;;0.70;;
31764;SDS011;18338;53.240;8.798;2022-09-03T13:08:23;3.28;;;1.00;;
31764;SDS011;18338;53.240;8.798;2022-09-03T13:10:54;2.05;;;0.80;;
31764;SDS011;18338;53.240;8.798;2022-09-03T13:13:30;1.15;;;0.73;;
31764;SDS011;18338;53.240;8.798;2022-09-03T13:27:01;2.15;;;0.80;;
31764;SDS011;18338;53.240;8.798;2022-09-03T13:29:46;3.08;;;0.80;;
31764;SDS011;18338;53.240;8.798;2022-09-03T13:32:39;0.70;;;0.65;;
31764;SDS011;18338;53.240;8.798;2022-09-03T13:38:03;1.08;;;0.60;;
31764;SDS011;18338;53.240;8.798;2022-09-03T13:40:54;1.70;;;0.80;;
31764;SDS011;18338;53.240;8.798;2022-09-03T13:43:33;2.45;;;0.63;;
31764;SDS011;18338;53.240;8.798;2022-09-03T13:46:22;1.63;;;0.60;;
31764;SDS011;18338;53.240;8.798;2022-09-03T13:52:07;1.67;;;0.77;;
31764;SDS011;18338;53.240;8.798;2022-09-03T13:54:51;2.38;;;0.70;;
31764;SDS011;18338;53.240;8.798;2022-09-03T13:57:45;2.60;;;0.90;;
31764;SDS011;18338;53.240;8.798;2022-09-03T14:00:13;1.35;;;0.88;;
31764;SDS011;18338;53.240;8.798;2022-09-03T14:05:53;1.38;;;0.90;;
31764;SDS011;18338;53.240;8.798;2022-09-03T14:08:22;6.57;;;0.80;;
31764;SDS011;18338;53.240;8.798;2022-09-03T14:19:32;1.35;;;1.17;;
31764;SDS011;18338;53.240;8.798;2022-09-03T14:24:46;0.90;;;0.77;;
31764;SDS011;18338;53.240;8.798;2022-09-03T14:27:21;1.65;;;0.90;;
31764;SDS011;18338;53.240;8.798;2022-09-03T14:29:53;1.48;;;0.90;;
31764;SDS011;18338;53.240;8.798;2022-09-03T14:32:49;0.80;;;0.65;;
31764;SDS011;18338;53.240;8.798;2022-09-03T14:35:34;1.67;;;0.80;;
31764;SDS011;18338;53.240;8.798;2022-09-03T14:40:39;2.67;;;0.80;;
31764;SDS011;18338;53.240;8.798;2022-09-03T14:46:00;1.88;;;0.70;;
31764;SDS011;18338;53.240;8.798;2022-09-03T14:48:50;1.75;;;0.60;;
31764;SDS011;18338;53.240;8.798;2022-09-03T14:59:37;1.90;;;0.80;;
31764;SDS011;18338;53.240;8.798;2022-09-03T15:02:36;2.85;;;0.80;;
31764;SDS011;18338;53.240;8.798;2022-09-03T15:05:39;2.13;;;0.80;;
31764;SDS011;18338;53.240;8.798;2022-09-03T15:08:16;2.08;;;0.82;;
31764;SDS011;18338;53.240;8.798;2022-09-03T15:11:13;0.95;;;0.82;;
31764;SDS011;18338;53.240;8.798;2022-09-03T15:13:54;1.92;;;1.02;;
31764;SDS011;18338;53.240;8.798;2022-09-03T15:19:33;3.97;;;0.70;;
31764;SDS011;18338;53.240;8.798;2022-09-03T15:25:21;1.20;;;0.40;;
31764;SDS011;18338;53.240;8.798;2022-09-03T15:28:00;1.40;;;0.98;;
31764;SDS011;18338;53.240;8.798;2022-09-03T15:31:33;2.17;;;0.68;;
31764;SDS011;18338;53.240;8.798;2022-09-03T15:34:00;0.85;;;0.57;;
31764;SDS011;18338;53.240;8.798;2022-09-03T15:36:45;2.25;;;0.80;;
31764;SDS011;18338;53.240;8.798;2022-09-03T15:39:20;1.17;;;0.65;;
31764;SDS011;18338;53.240;8.798;2022-09-03T15:42:05;0.57;;;0.57;;
31764;SDS011;18338;53.240;8.798;2022-09-03T15:44:37;1.00;;;0.77;;
31764;SDS011;18338;53.240;8.798;2022-09-03T15:47:12;0.60;;;0.60;;
31764;SDS011;18338;53.240;8.798;2022-09-03T15:50:31;1.33;;;0.73;;
31764;SDS011;18338;53.240;8.798;2022-09-03T15:53:02;1.33;;;0.88;;
31764;SDS011;18338;53.240;8.798;2022-09-03T15:55:32;1.65;;;0.80;;
31764;SDS011;18338;53.240;8.798;2022-09-03T16:00:52;1.33;;;0.70;;
31764;SDS011;18338;53.240;8.798;2022-09-03T16:03:36;1.52;;;0.63;;
31764;SDS011;18338;53.240;8.798;2022-09-03T16:06:22;1.60;;;0.60;;
31764;SDS011;18338;53.240;8.798;2022-09-03T16:09:28;2.80;;;0.95;;
31764;SDS011;18338;53.240;8.798;2022-09-03T16:15:14;0.88;;;0.70;;
31764;SDS011;18338;53.240;8.798;2022-09-03T16:18:22;1.30;;;0.60;;
31764;SDS011;18338;53.240;8.798;2022-09-03T16:20:55;1.60;;;0.90;;
31764;SDS011;18338;53.240;8.798;2022-09-03T16:26:03;1.58;;;0.70;;
31764;SDS011;18338;53.240;8.798;2022-09-03T16:28:46;1.38;;;0.90;;
31764;SDS011;18338;53.240;8.798;2022-09-03T16:31:26;2.08;;;0.80;;
31764;SDS011;18338;53.240;8.798;2022-09-03T16:34:06;2.95;;;1.00;;
31764;SDS011;18338;53.240;8.798;2022-09-03T16:37:05;1.58;;;0.85;;
31764;SDS011;18338;53.240;8.798;2022-09-03T16:42:42;0.82;;;0.70;;
31764;SDS011;18338;53.240;8.798;2022-09-03T16:45:30;1.17;;;0.80;;
31764;SDS011;18338;53.240;8.798;2022-09-03T16:51:13;2.38;;;0.90;;
31764;SDS011;18338;53.240;8.798;2022-09-03T16:54:21;1.05;;;0.80;;
31764;SDS011;18338;53.240;8.798;2022-09-03T16:56:58;3.55;;;1.05;;
31764;SDS011;18338;53.240;8.798;2022-09-03T16:59:53;0.90;;;0.90;;
31764;SDS011;18338;53.240;8.798;2022-09-03T17:02:34;2.17;;;1.10;;
31764;SDS011;18338;53.240;8.798;2022-09-03T17:10:51;2.85;;;0.90;;
31764;SDS011;18338;53.240;8.798;2022-09-03T17:17:03;1.67;;;1.10;;
31764;SDS011;18338;53.240;8.798;2022-09-03T17:25:18;3.72;;;1.30;;
31764;SDS011;18338;53.240;8.798;2022-09-03T17:28:00;3.20;;;1.40;;
31764;SDS011;18338;53.240;8.798;2022-09-03T17:44:14;5.53;;;1.65;;
31764;SDS011;18338;53.240;8.798;2022-09-03T17:46:50;3.28;;;1.27;;
31764;SDS011;18338;53.240;8.798;2022-09-03T17:49:43;1.38;;;0.93;;
31764;SDS011;18338;53.240;8.798;2022-09-03T17:54:55;3.40;;;1.10;;
31764;SDS011;18338;53.240;8.798;2022-09-03T17:57:30;2.38;;;1.15;;
31764;SDS011;18338;53.240;8.798;2022-09-03T18:00:06;2.35;;;0.95;;
31764;SDS011;18338;53.240;8.798;2022-09-03T18:02:38;4.47;;;1.20;;
31764;SDS011;18338;53.240;8.798;2022-09-03T18:05:29;1.90;;;1.00;;
31764;SDS011;18338;53.240;8.798;2022-09-03T18:16:26;1.60;;;1.10;;
31764;SDS011;18338;53.240;8.798;2022-09-03T18:18:57;2.28;;;1.13;;
31764;SDS011;18338;53.240;8.798;2022-09-03T18:21:33;2.75;;;1.23;;
31764;SDS011;18338;53.240;8.798;2022-09-03T18:24:27;1.98;;;0.93;;
31764;SDS011;18338;53.240;8.798;2022-09-03T18:27:39;1.67;;;0.82;;
31764;SDS011;18338;53.240;8.798;2022-09-03T18:30:30;2.15;;;1.10;;
31764;SDS011;18338;53.240;8.798;2022-09-03T18:33:19;4.43;;;0.93;;
31764;SDS011;18338;53.240;8.798;2022-09-03T18:36:07;4.68;;;1.00;;
31764;SDS011;18338;53.240;8.798;2022-09-03T18:38:56;3.28;;;1.20;;
31764;SDS011;18338;53.240;8.798;2022-09-03T18:41:51;1.50;;;1.17;;
31764;SDS011;18338;53.240;8.798;2022-09-03T18:48:15;1.75;;;1.00;;
31764;SDS011;18338;53.240;8.798;2022-09-03T18:57:47;4.93;;;1.27;;
31764;SDS011;18338;53.240;8.798;2022-09-03T19:00:42;1.17;;;0.90;;
31764;SDS011;18338;53.240;8.798;2022-09-03T19:04:09;0.88;;;0.80;;
31764;SDS011;18338;53.240;8.798;2022-09-03T19:07:06;2.60;;;1.00;;
31764;SDS011;18338;53.240;8.798;2022-09-03T19:15:46;2.80;;;0.90;;
31764;SDS011;18338;53.240;8.798;2022-09-03T19:21:40;3.20;;;0.95;;
31764;SDS011;18338;53.240;8.798;2022-09-03T19:24:30;1.50;;;0.88;;
31764;SDS011;18338;53.240;8.798;2022-09-03T19:27:28;1.60;;;0.98;;
31764;SDS011;18338;53.240;8.798;2022-09-03T19:30:30;3.58;;;0.90;;
31764;SDS011;18338;53.240;8.798;2022-09-03T19:33:41;4.95;;;0.90;;
31764;SDS011;18338;53.240;8.798;2022-09-03T19:37:02;1.77;;;0.88;;
31764;SDS011;18338;53.240;8.798;2022-09-03T19:43:59;1.48;;;0.70;;
31764;SDS011;18338;53.240;8.798;2022-09-03T19:47:09;1.35;;;0.70;;
31764;SDS011;18338;53.240;8.798;2022-09-03T19:49:45;2.25;;;0.70;;
31764;SDS011;18338;53.240;8.798;2022-09-03T19:52:46;1.08;;;0.70;;
31764;SDS011;18338;53.240;8.798;2022-09-03T19:55:46;1.73;;;1.00;;
31764;SDS011;18338;53.240;8.798;2022-09-03T19:58:37;1.95;;;0.80;;
31764;SDS011;18338;53.240;8.798;2022-09-03T20:01:30;0.90;;;0.90;;
31764;SDS011;18338;53.240;8.798;2022-09-03T20:04:18;2.75;;;0.80;;